createdAt,value
2023-05-05T00:20:22.015Z,99560.50
2023-05-05T00:32:27.122Z,99542.63
2023-05-05T00:38:04.360Z,99556.84
2023-05-05T00:43:40.824Z,99552.31
2023-05-05T00:55:58.803Z,99552.66
2023-05-05T01:08:23.234Z,99532.63
2023-05-05T01:46:26.532Z,99558.81
2023-05-05T01:55:42.031Z,99535.13
2023-05-05T01:58:10.566Z,99542.81
2023-05-05T02:21:01.351Z,99515.84
2023-05-05T02:23:31.452Z,99543.91
2023-05-05T02:26:07.545Z,99569.59
2023-05-05T02:38:23.624Z,99525.63
2023-05-05T02:47:47.584Z,99559.75
2023-05-05T03:03:48.888Z,99556.06
2023-05-05T03:30:10.621Z,99559.59
2023-05-05T04:42:28.405Z,99612.03
2023-05-05T04:44:56.236Z,99579.66
2023-05-05T05:01:46.171Z,99624.22
2023-05-05T05:04:38.258Z,99647.00
2023-05-05T05:22:50.197Z,99657.44
2023-05-05T07:12:07.974Z,99688.13
2023-05-05T07:51:22.838Z,99719.28
2023-05-05T08:27:49.588Z,99744.50
2023-05-05T08:30:21.217Z,99755.53
2023-05-05T08:32:48.863Z,99744.34
2023-05-05T08:35:16.271Z,99783.47
2023-05-05T08:37:43.443Z,99789.50
2023-05-05T08:40:14.699Z,99788.78
2023-05-05T08:42:42.479Z,99781.25
2023-05-05T08:53:31.559Z,99820.69
2023-05-05T08:56:01.220Z,99796.66
2023-05-05T08:58:47.639Z,99806.31
2023-05-05T09:01:35.714Z,99789.22
2023-05-05T09:18:33.599Z,99794.50
2023-05-05T09:21:01.378Z,99739.25
2023-05-05T09:23:47.185Z,99774.19
2023-05-05T09:26:14.819Z,99818.56
2023-05-05T09:28:54.988Z,99781.16
2023-05-05T09:31:38.616Z,99768.75
2023-05-05T09:34:17.456Z,99788.69
2023-05-05T09:36:49.264Z,99825.75
2023-05-05T09:39:21.035Z,99802.25
2023-05-05T09:59:28.208Z,99818.06
2023-05-05T10:05:17.486Z,99786.75
2023-05-05T10:13:49.350Z,99779.28
2023-05-05T10:45:14.348Z,99823.47
2023-05-05T10:47:44.521Z,99816.94
2023-05-05T10:50:31.225Z,99848.84
2023-05-05T10:53:17.945Z,99824.16
2023-05-05T10:55:58.718Z,99815.84
2023-05-05T10:58:50.924Z,99812.38
2023-05-05T11:01:36.870Z,99787.09
2023-05-05T11:04:17.229Z,99764.75
2023-05-05T11:07:13.702Z,99814.63
2023-05-05T11:10:09.013Z,99790.97
2023-05-05T11:13:02.868Z,99813.38
2023-05-05T11:15:30.706Z,99829.31
2023-05-05T11:18:01.963Z,99794.06
2023-05-05T11:23:42.478Z,99767.59
2023-05-05T11:26:10.049Z,99785.44
2023-05-05T11:28:56.144Z,99813.81
2023-05-05T11:31:27.186Z,99799.81
2023-05-05T11:33:54.344Z,99778.94
2023-05-05T11:36:38.289Z,99810.13
2023-05-05T11:39:26.661Z,99834.66
2023-05-05T11:42:10.967Z,99807.75
2023-05-05T11:44:38.318Z,99827.50
2023-05-05T11:47:05.363Z,99806.13
2023-05-05T11:49:33.602Z,99817.38
2023-05-05T11:52:06.019Z,99833.28
2023-05-05T11:54:34.800Z,99831.16
2023-05-05T11:57:05.315Z,99802.59
2023-05-05T11:59:33.285Z,99822.06
2023-05-05T12:02:03.196Z,99803.66
2023-05-05T12:04:31.728Z,99822.34
2023-05-05T12:07:01.625Z,99789.53
2023-05-05T12:09:31.344Z,99805.88
2023-05-05T12:12:11.661Z,99804.66
2023-05-05T12:14:58.438Z,99782.75
2023-05-05T12:29:11.076Z,99810.00
2023-05-05T13:24:49.886Z,99809.94
2023-05-05T14:45:35.413Z,99766.38
2023-05-05T17:45:40.113Z,99780.19
2023-05-05T18:24:59.235Z,99783.06
2023-05-05T18:44:46.989Z,99798.03
2023-05-05T18:47:14.647Z,99772.78
2023-05-05T19:14:20.728Z,99786.91
2023-05-05T20:03:45.221Z,99783.09
2023-05-05T20:49:49.938Z,99781.53
2023-05-05T20:52:34.017Z,99789.47
2023-05-05T21:12:20.216Z,99772.34
2023-05-05T21:14:47.433Z,99776.53
2023-05-05T21:17:14.738Z,99789.78
2023-05-05T21:19:41.881Z,99791.72
2023-05-05T21:22:09.133Z,99791.00
2023-05-05T21:24:38.371Z,99793.59
2023-05-05T21:27:05.744Z,99779.88
2023-05-05T21:29:37.610Z,99770.94
2023-05-05T21:32:08.446Z,99792.94
2023-05-05T21:34:36.297Z,99799.72
2023-05-05T21:37:06.758Z,99768.31
2023-05-05T21:39:35.366Z,99765.41
2023-05-05T21:42:02.616Z,99781.84
2023-05-05T21:44:30.592Z,99776.72
2023-05-05T21:47:00.030Z,99766.94
2023-05-05T21:49:29.821Z,99757.63
2023-05-05T21:51:58.689Z,99760.44
2023-05-05T21:54:26.689Z,99764.50
2023-05-05T21:56:56.896Z,99762.31
2023-05-05T21:59:24.047Z,99754.53
2023-05-05T22:01:51.475Z,99766.56
2023-05-05T22:04:18.990Z,99766.81
2023-05-05T22:06:46.252Z,99780.97
2023-05-05T22:09:13.265Z,99760.84
2023-05-05T22:11:40.276Z,99793.56
2023-05-05T22:14:07.389Z,99775.81
2023-05-05T22:16:34.510Z,99792.97
2023-05-05T22:19:01.804Z,99787.50
2023-05-05T22:21:28.760Z,99790.19
2023-05-05T22:23:55.783Z,99794.19
2023-05-05T22:26:22.963Z,99782.81
2023-05-05T22:28:50.155Z,99788.72
2023-05-05T22:31:17.625Z,99800.19
2023-05-05T22:33:44.751Z,99784.19
2023-05-05T22:36:11.736Z,99785.75
2023-05-05T22:38:38.913Z,99796.00
2023-05-05T22:41:07.624Z,99774.97
2023-05-05T22:43:34.787Z,99808.13
2023-05-05T22:46:01.774Z,99798.78
2023-05-05T22:48:30.054Z,99796.88
2023-05-05T22:50:57.395Z,99795.91
2023-05-05T22:53:24.568Z,99800.22
2023-05-05T22:55:51.937Z,99799.72
2023-05-05T22:58:19.069Z,99803.34
2023-05-05T23:00:46.163Z,99824.78
2023-05-05T23:03:13.952Z,99823.09
2023-05-05T23:05:40.996Z,99799.75
2023-05-05T23:08:08.088Z,99786.91
2023-05-05T23:10:35.360Z,99817.56
2023-05-05T23:13:02.417Z,99798.56
2023-05-05T23:15:30.283Z,99791.00
2023-05-05T23:17:57.491Z,99781.25
2023-05-05T23:20:24.702Z,99818.03
2023-05-05T23:22:51.889Z,99789.41
2023-05-05T23:25:18.902Z,99812.72
2023-05-05T23:27:48.211Z,99792.41
2023-05-05T23:30:15.691Z,99788.81
2023-05-05T23:32:44.992Z,99810.56
2023-05-05T23:35:12.478Z,99811.06
2023-05-05T23:37:39.717Z,99794.81
2023-05-05T23:40:07.428Z,99796.25
2023-05-05T23:42:34.489Z,99784.69
2023-05-05T23:45:01.705Z,99787.09
2023-05-05T23:47:31.277Z,99774.22
2023-05-05T23:49:58.240Z,99807.66
2023-05-05T23:52:25.342Z,99778.31
2023-05-05T23:54:52.292Z,99814.25
2023-05-05T23:57:19.469Z,99821.09
